Superferry II — SWKV — position and weather

sailwx.info

Track history (hours):
 
Tides and Currents Weather Stations Pressure Air Temp Water Temp Dewpoint Dewpoint Depression Visibility Wind Speed Wind Dir Waves Ship Positions

Superferry II

Last reported at 2015-Aug-30 05:31 UTC. Time now 2015-Aug-30 05:59 UTC.
Position N 37°58' E 024°14'.

Length 122 m; draft 4.7 m.

Type: Passenger vessel. MMSI: 237001000.

Date/timePositionNaut miles runAvg speedWind from/ knotsBaromVisibWave heightAir tempDewpointWater temp
2015-Aug-30 05:31N 37°58' E 024°14'9 1.0
2015-Aug-29 20:33N 38°01' E 024°03'0 0.1
2015-Aug-29 16:34N 38°01' E 024°03'4611.6
2015-Aug-29 12:33N 37°41' E 024°56'1413.6
2015-Aug-29 11:33N 37°32' E 025°09'9 9.2
2015-Aug-29 10:34N 37°28' E 025°19'4 4.3
2015-Aug-29 09:34N 37°28' E 025°14'1110.7
2015-Aug-29 08:33N 37°35' E 025°03'4615.1
2015-Aug-29 05:29N 37°58' E 024°13'5 0.5
2015-Aug-28 20:33N 37°60' E 024°07'4 1.2
2015-Aug-28 17:08N 37°58' E 024°12'39 8.5
2015-Aug-28 12:33N 37°41' E 024°56'1413.7
2015-Aug-28 11:33N 37°32' E 025°09'9 9.3
2015-Aug-28 10:33N 37°28' E 025°19'0 0.4
2015-Aug-28 09:33N 37°28' E 025°19'1313.0
2015-Aug-28 08:33N 37°34' E 025°05'5015.5
2015-Aug-28 05:21N 37°59' E 024°11'2 0.2
2015-Aug-27 17:07N 37°58' E 024°13'37 8.1
2015-Aug-27 12:34N 37°42' E 024°55'1514.9
2015-Aug-27 11:34N 37°32' E 025°09'9 9.2
2015-Aug-27 10:33N 37°28' E 025°19'4 4.4
2015-Aug-27 09:33N 37°28' E 025°14'1211.7
2015-Aug-27 08:33N 37°36' E 025°02'4715.0
2015-Aug-27 05:25N 37°59' E 024°11'4 0.3
2015-Aug-26 15:32N 38°00' E 024°06'4113.7
2015-Aug-26 12:33N 37°43' E 024°53'1716.7
2015-Aug-26 11:33N 37°32' E 025°09'9 9.1
2015-Aug-26 10:33N 37°28' E 025°19'0 0.0
2015-Aug-26 09:33N 37°28' E 025°19'1111.4
2015-Aug-26 08:33N 37°33' E 025°07'5115.9
2015-Aug-26 05:20N 37°59' E 024°11'38 2.3
2015-Aug-25 12:33N 37°42' E 024°54'1515.5
2015-Aug-25 11:33N 37°32' E 025°09'9 9.2
2015-Aug-25 10:33N 37°28' E 025°19'2 2.1
2015-Aug-25 09:33N 37°27' E 025°17'1111.4
2015-Aug-25 08:33N 37°34' E 025°05'4815.3
2015-Aug-25 05:26N 37°58' E 024°13'3 0.2
2015-Aug-24 17:17N 37°57' E 024°16'34 7.2
2015-Aug-24 12:33N 37°42' E 024°54'1514.9
2015-Aug-24 11:33N 37°32' E 025°09'9 9.2
2015-Aug-24 10:33N 37°28' E 025°19'1 1.0
2015-Aug-24 09:33N 37°27' E 025°18'1413.9
2015-Aug-24 08:33N 37°35' E 025°04'4714.8
2015-Aug-24 05:24N 37°58' E 024°13'10 1.2
2015-Aug-23 21:15N 38°01' E 024°01'15 3.8
2015-Aug-23 17:19N 37°57' E 024°19'1419.0
2015-Aug-23 16:33N 38°01' E 024°01'4611.4
2015-Aug-23 12:33N 37°42' E 024°54'1615.9
2015-Aug-23 11:33N 37°32' E 025°09'9 9.2
2015-Aug-23 10:33N 37°28' E 025°19'0 0.1
2015-Aug-23 09:33N 37°28' E 025°19'1211.9
2015-Aug-23 08:33N 37°33' E 025°06'4915.6
2015-Aug-23 05:26N 37°58' E 024°13'5 0.4
2015-Aug-22 17:18N 37°57' E 024°19'1419.1
2015-Aug-22 16:33N 38°01' E 024°02'4811.9
2015-Aug-22 12:32N 37°41' E 024°56'1313.6
2015-Aug-22 11:33N 37°32' E 025°09'9 9.1
2015-Aug-22 10:33N 37°28' E 025°19'3 2.8
2015-Aug-22 09:34N 37°28' E 025°16'1313.2
2015-Aug-22 08:33N 37°36' E 025°02'4515.0
2015-Aug-22 05:33N 37°58' E 024°13'8 0.8
2015-Aug-21 20:33N 38°01' E 024°04'11 3.3
2015-Aug-21 17:12N 37°57' E 024°18'1219.2
2015-Aug-21 16:33N 38°01' E 024°03'3 2.6
2015-Aug-21 15:34N 38°00' E 024°06'4214.1
2015-Aug-21 12:33N 37°42' E 024°54'1515.3
2015-Aug-21 11:33N 37°32' E 025°09'9 9.2
2015-Aug-21 10:33N 37°28' E 025°20'0 0.0
2015-Aug-21 09:33N 37°28' E 025°19'1111.5
2015-Aug-21 08:33N 37°33' E 025°07'4916.1
2015-Aug-21 05:30N 37°58' E 024°13'9 1.0
2015-Aug-20 20:33N 38°01' E 024°02'15 4.4
2015-Aug-20 17:11N 37°57' E 024°20'1218.6
2015-Aug-20 16:33N 38°00' E 024°06'4 3.8
2015-Aug-20 15:33N 38°01' E 024°01'4414.8
2015-Aug-20 12:33N 37°43' E 024°53'1717.3
2015-Aug-20 11:33N 37°32' E 025°09'9 9.2
2015-Aug-20 10:33N 37°28' E 025°19'0 0.0
2015-Aug-20 09:33N 37°28' E 025°19'1110.8
2015-Aug-20 08:33N 37°33' E 025°07'  
Track history (hours):
 
Tides and Currents Weather Stations Pressure Air Temp Water Temp Dewpoint Dewpoint Depression Visibility Wind Speed Wind Dir Waves Ship Positions

Superferry II

Last reported at 2015-Aug-30 05:31 UTC. Time now 2015-Aug-30 05:59 UTC.
Position N 37°58' E 024°14'.

Length 122 m; draft 4.7 m.

Type: Passenger vessel. MMSI: 237001000.

Date/timePositionNaut miles runAvg speedWind from/ knotsBaromVisibWave heightAir tempDewpointWater temp
2015-Aug-30 05:31N 37°58' E 024°14'9 1.0
2015-Aug-29 20:33N 38°01' E 024°03'0 0.1
2015-Aug-29 16:34N 38°01' E 024°03'4611.6
2015-Aug-29 12:33N 37°41' E 024°56'1413.6
2015-Aug-29 11:33N 37°32' E 025°09'9 9.2
2015-Aug-29 10:34N 37°28' E 025°19'4 4.3
2015-Aug-29 09:34N 37°28' E 025°14'1110.7
2015-Aug-29 08:33N 37°35' E 025°03'4615.1
2015-Aug-29 05:29N 37°58' E 024°13'5 0.5
2015-Aug-28 20:33N 37°60' E 024°07'4 1.2
2015-Aug-28 17:08N 37°58' E 024°12'39 8.5
2015-Aug-28 12:33N 37°41' E 024°56'1413.7
2015-Aug-28 11:33N 37°32' E 025°09'9 9.3
2015-Aug-28 10:33N 37°28' E 025°19'0 0.4
2015-Aug-28 09:33N 37°28' E 025°19'1313.0
2015-Aug-28 08:33N 37°34' E 025°05'5015.5
2015-Aug-28 05:21N 37°59' E 024°11'2 0.2
2015-Aug-27 17:07N 37°58' E 024°13'37 8.1
2015-Aug-27 12:34N 37°42' E 024°55'1514.9
2015-Aug-27 11:34N 37°32' E 025°09'9 9.2
2015-Aug-27 10:33N 37°28' E 025°19'4 4.4
2015-Aug-27 09:33N 37°28' E 025°14'1211.7
2015-Aug-27 08:33N 37°36' E 025°02'4715.0
2015-Aug-27 05:25N 37°59' E 024°11'4 0.3
2015-Aug-26 15:32N 38°00' E 024°06'4113.7
2015-Aug-26 12:33N 37°43' E 024°53'1716.7
2015-Aug-26 11:33N 37°32' E 025°09'9 9.1
2015-Aug-26 10:33N 37°28' E 025°19'0 0.0
2015-Aug-26 09:33N 37°28' E 025°19'1111.4
2015-Aug-26 08:33N 37°33' E 025°07'5115.9
2015-Aug-26 05:20N 37°59' E 024°11'38 2.3
2015-Aug-25 12:33N 37°42' E 024°54'1515.5
2015-Aug-25 11:33N 37°32' E 025°09'9 9.2
2015-Aug-25 10:33N 37°28' E 025°19'2 2.1
2015-Aug-25 09:33N 37°27' E 025°17'1111.4
2015-Aug-25 08:33N 37°34' E 025°05'4815.3
2015-Aug-25 05:26N 37°58' E 024°13'3 0.2
2015-Aug-24 17:17N 37°57' E 024°16'34 7.2
2015-Aug-24 12:33N 37°42' E 024°54'1514.9
2015-Aug-24 11:33N 37°32' E 025°09'9 9.2
2015-Aug-24 10:33N 37°28' E 025°19'1 1.0
2015-Aug-24 09:33N 37°27' E 025°18'1413.9
2015-Aug-24 08:33N 37°35' E 025°04'4714.8
2015-Aug-24 05:24N 37°58' E 024°13'10 1.2
2015-Aug-23 21:15N 38°01' E 024°01'15 3.8
2015-Aug-23 17:19N 37°57' E 024°19'1419.0
2015-Aug-23 16:33N 38°01' E 024°01'4611.4
2015-Aug-23 12:33N 37°42' E 024°54'1615.9
2015-Aug-23 11:33N 37°32' E 025°09'9 9.2
2015-Aug-23 10:33N 37°28' E 025°19'0 0.1
2015-Aug-23 09:33N 37°28' E 025°19'1211.9
2015-Aug-23 08:33N 37°33' E 025°06'4915.6
2015-Aug-23 05:26N 37°58' E 024°13'5 0.4
2015-Aug-22 17:18N 37°57' E 024°19'1419.1
2015-Aug-22 16:33N 38°01' E 024°02'4811.9
2015-Aug-22 12:32N 37°41' E 024°56'1313.6
2015-Aug-22 11:33N 37°32' E 025°09'9 9.1
2015-Aug-22 10:33N 37°28' E 025°19'3 2.8
2015-Aug-22 09:34N 37°28' E 025°16'1313.2
2015-Aug-22 08:33N 37°36' E 025°02'4515.0
2015-Aug-22 05:33N 37°58' E 024°13'8 0.8
2015-Aug-21 20:33N 38°01' E 024°04'11 3.3
2015-Aug-21 17:12N 37°57' E 024°18'1219.2
2015-Aug-21 16:33N 38°01' E 024°03'3 2.6
2015-Aug-21 15:34N 38°00' E 024°06'4214.1
2015-Aug-21 12:33N 37°42' E 024°54'1515.3
2015-Aug-21 11:33N 37°32' E 025°09'9 9.2
2015-Aug-21 10:33N 37°28' E 025°20'0 0.0
2015-Aug-21 09:33N 37°28' E 025°19'1111.5
2015-Aug-21 08:33N 37°33' E 025°07'4916.1
2015-Aug-21 05:30N 37°58' E 024°13'9 1.0
2015-Aug-20 20:33N 38°01' E 024°02'15 4.4
2015-Aug-20 17:11N 37°57' E 024°20'1218.6
2015-Aug-20 16:33N 38°00' E 024°06'4 3.8
2015-Aug-20 15:33N 38°01' E 024°01'4414.8
2015-Aug-20 12:33N 37°43' E 024°53'1717.3
2015-Aug-20 11:33N 37°32' E 025°09'9 9.2
2015-Aug-20 10:33N 37°28' E 025°19'0 0.0
2015-Aug-20 09:33N 37°28' E 025°19'1110.8
2015-Aug-20 08:33N 37°33' E 025°07'  

Dump ship's entire track history